createdAt,value
2019-04-03T00:00:08.635Z,49.70
2019-04-03T00:02:37.017Z,50.10
2019-04-03T00:05:06.415Z,50.40
2019-04-03T00:07:35.877Z,50.70
2019-04-03T00:10:06.629Z,50.80
2019-04-03T00:12:35.332Z,50.60
2019-04-03T00:15:04.644Z,50.20
2019-04-03T00:17:32.585Z,49.90
2019-04-03T00:20:00.585Z,50.50
2019-04-03T00:22:28.638Z,49.60
2019-04-03T00:24:56.666Z,49.40
2019-04-03T00:27:24.518Z,49.80
2019-04-03T00:29:52.682Z,49.90
2019-04-03T00:32:21.725Z,50.00
2019-04-03T00:34:51.691Z,50.20
2019-04-03T00:37:21.536Z,50.30
2019-04-03T00:39:50.266Z,50.30
2019-04-03T00:42:18.163Z,50.60
2019-04-03T00:44:46.283Z,50.50
2019-04-03T00:47:14.316Z,50.50
2019-04-03T00:49:42.291Z,50.30
2019-04-03T00:52:10.281Z,50.30
2019-04-03T00:54:38.222Z,50.10
2019-04-03T00:57:06.168Z,50.40
2019-04-03T00:59:34.415Z,50.60
2019-04-03T01:02:02.598Z,51.10
2019-04-03T01:04:30.709Z,51.20
2019-04-03T01:06:59.153Z,51.20
2019-04-03T01:09:29.230Z,51.30
2019-04-03T01:11:57.072Z,51.90
2019-04-03T01:14:25.001Z,51.90
2019-04-03T01:16:52.920Z,52.10
2019-04-03T01:19:20.893Z,51.60
2019-04-03T01:21:48.844Z,51.90
2019-04-03T01:24:16.809Z,51.90
2019-04-03T01:26:44.748Z,52.00
2019-04-03T01:29:12.959Z,52.20
2019-04-03T01:31:40.827Z,52.50
2019-04-03T01:34:08.749Z,52.50
2019-04-03T01:36:36.668Z,52.40
2019-04-03T01:39:06.756Z,52.50
2019-04-03T01:41:35.060Z,52.40
2019-04-03T01:44:02.987Z,52.50
2019-04-03T01:46:31.071Z,52.50
2019-04-03T01:48:59.033Z,51.70
2019-04-03T01:51:29.122Z,51.60
2019-04-03T01:53:56.731Z,51.30
2019-04-03T01:56:24.818Z,51.50
2019-04-03T01:58:52.698Z,51.80
2019-04-03T02:01:20.664Z,52.40
2019-04-03T02:03:48.593Z,52.60
2019-04-03T02:06:16.552Z,52.60
2019-04-03T02:08:45.295Z,52.60
2019-04-03T02:11:13.448Z,52.90
2019-04-03T02:13:41.385Z,52.80
2019-04-03T02:16:09.386Z,53.30
2019-04-03T02:18:37.379Z,53.50
2019-04-03T02:21:05.239Z,53.80
2019-04-03T02:23:33.120Z,54.60
2019-04-03T02:26:02.403Z,55.30
2019-04-03T02:28:31.021Z,56.10
2019-04-03T02:30:58.893Z,57.60
2019-04-03T02:33:28.931Z,58.30
2019-04-03T02:35:56.580Z,58.80
2019-04-03T02:38:24.530Z,60.30
2019-04-03T02:40:52.689Z,60.70
2019-04-03T02:43:20.985Z,60.50
2019-04-03T02:45:49.161Z,60.70
2019-04-03T02:48:17.123Z,60.80
2019-04-03T02:50:47.565Z,61.40
2019-04-03T02:53:15.220Z,61.00
2019-04-03T02:55:43.150Z,61.30
2019-04-03T02:58:11.203Z,61.50
2019-04-03T03:00:39.235Z,61.80
2019-04-03T03:03:07.471Z,62.00
2019-04-03T03:05:35.463Z,61.50
2019-04-03T03:08:03.612Z,62.80
2019-04-03T03:10:32.528Z,62.40
2019-04-03T03:13:02.244Z,62.50
2019-04-03T03:15:30.636Z,61.40
2019-04-03T03:17:59.716Z,61.30
2019-04-03T03:20:28.780Z,61.40
2019-04-03T03:22:57.469Z,62.30
2019-04-03T03:25:25.935Z,61.70
2019-04-03T03:27:54.058Z,63.20
2019-04-03T03:30:40.078Z,61.80
2019-04-03T03:33:19.325Z,62.10
2019-04-03T03:35:29.228Z,62.40
2019-04-03T03:37:52.599Z,61.90
2019-04-03T03:40:20.824Z,61.80
2019-04-03T03:42:49.730Z,62.40
2019-04-03T03:45:21.028Z,62.10
2019-04-03T03:47:50.579Z,62.10
2019-04-03T03:50:25.932Z,62.10
2019-04-03T03:52:54.343Z,61.80
2019-04-03T03:55:24.796Z,61.50
2019-04-03T03:57:53.446Z,61.30
2019-04-03T04:00:23.622Z,61.30
2019-04-03T04:02:51.205Z,61.30
2019-04-03T04:05:21.396Z,61.70
2019-04-03T04:07:49.339Z,61.80
2019-04-03T04:10:17.655Z,62.70
2019-04-03T04:12:46.556Z,62.60
2019-04-03T04:15:14.683Z,63.30
2019-04-03T04:17:43.846Z,63.90
2019-04-03T04:20:11.911Z,62.90
2019-04-03T04:22:39.911Z,63.70
2019-04-03T04:25:07.841Z,64.40
2019-04-03T04:27:38.569Z,64.70
2019-04-03T04:30:06.207Z,65.60
2019-04-03T04:32:35.992Z,64.70
2019-04-03T04:35:04.340Z,65.20
2019-04-03T04:37:32.324Z,65.70
2019-04-03T04:40:00.324Z,65.30
2019-04-03T04:42:28.245Z,65.80
2019-04-03T04:44:56.127Z,66.70
2019-04-03T04:47:24.113Z,66.70
2019-04-03T04:49:53.598Z,66.80
2019-04-03T04:52:22.229Z,68.00
2019-04-03T04:54:50.445Z,67.80
2019-04-03T04:57:18.574Z,66.90
2019-04-03T04:59:46.546Z,67.00
2019-04-03T05:02:14.474Z,66.70
2019-04-03T05:04:42.436Z,67.00
2019-04-03T05:07:10.392Z,66.80
2019-04-03T05:09:39.329Z,66.60
2019-04-03T05:12:09.441Z,67.70
2019-04-03T05:14:37.229Z,66.70
2019-04-03T05:17:05.236Z,67.00
2019-04-03T05:19:33.151Z,67.60
2019-04-03T05:22:01.099Z,67.20
2019-04-03T05:24:29.538Z,67.10
2019-04-03T05:26:57.877Z,67.20
2019-04-03T05:29:26.152Z,67.70
2019-04-03T05:31:56.167Z,67.50
2019-04-03T05:34:24.441Z,67.00
2019-04-03T05:36:52.322Z,67.40
2019-04-03T05:39:20.416Z,67.50
2019-04-03T05:41:48.343Z,68.00
2019-04-03T05:44:16.637Z,68.40
2019-04-03T05:46:44.596Z,68.60
2019-04-03T05:49:12.468Z,67.50
2019-04-03T05:51:40.492Z,66.90
2019-04-03T05:54:08.532Z,67.10
2019-04-03T05:56:36.455Z,67.50
2019-04-03T05:59:04.419Z,67.90
2019-04-03T06:01:32.456Z,67.40
2019-04-03T06:04:03.186Z,67.50
2019-04-03T06:06:31.476Z,67.20
2019-04-03T06:08:59.409Z,67.60
2019-04-03T06:11:27.517Z,67.80
2019-04-03T06:13:55.484Z,68.00
2019-04-03T06:16:24.807Z,67.80
2019-04-03T06:18:53.068Z,68.60
2019-04-03T06:21:21.194Z,67.90
2019-04-03T06:23:49.118Z,67.40
2019-04-03T06:26:17.141Z,68.40
2019-04-03T06:28:47.671Z,68.00
2019-04-03T06:31:15.118Z,67.40
2019-04-03T06:33:44.400Z,67.60
2019-04-03T06:36:12.383Z,66.70
2019-04-03T06:38:40.458Z,66.30
2019-04-03T06:41:09.133Z,66.70
2019-04-03T06:43:37.448Z,67.20
2019-04-03T06:46:05.833Z,65.70
2019-04-03T06:48:34.585Z,64.30
2019-04-03T06:51:03.626Z,64.60
2019-04-03T06:53:31.640Z,64.30
2019-04-03T06:55:59.624Z,65.20
2019-04-03T06:58:37.249Z,66.00
2019-04-03T07:00:57.611Z,65.20
2019-04-03T07:03:26.367Z,65.00
2019-04-03T07:05:54.417Z,64.10
2019-04-03T07:08:30.107Z,63.90
2019-04-03T07:10:55.615Z,63.80
2019-04-03T07:13:22.413Z,65.20
2019-04-03T07:15:50.636Z,64.80
2019-04-03T07:18:18.674Z,63.80
2019-04-03T07:20:46.575Z,62.10
2019-04-03T07:23:14.929Z,63.30
2019-04-03T07:25:43.202Z,63.10
2019-04-03T07:28:11.244Z,63.20
2019-04-03T07:30:39.168Z,62.00
2019-04-03T07:33:07.437Z,62.00
2019-04-03T07:35:35.369Z,62.10
2019-04-03T07:38:03.312Z,61.10
2019-04-03T07:40:31.251Z,60.50
2019-04-03T07:42:59.655Z,59.80
2019-04-03T07:45:27.690Z,60.40
2019-04-03T07:47:55.726Z,61.00
2019-04-03T07:50:23.603Z,61.90
2019-04-03T07:52:51.864Z,62.60
2019-04-03T07:55:19.771Z,61.90
2019-04-03T07:57:47.802Z,63.70
2019-04-03T08:00:16.353Z,62.00
2019-04-03T08:02:48.003Z,61.60
2019-04-03T08:05:14.259Z,60.70
2019-04-03T08:07:42.626Z,59.20
2019-04-03T08:10:11.310Z,59.60
2019-04-03T08:12:39.454Z,58.50
2019-04-03T08:15:09.258Z,58.10
2019-04-03T08:17:37.274Z,59.10
2019-04-03T08:20:06.218Z,59.70
2019-04-03T08:22:34.225Z,58.70
2019-04-03T08:25:02.307Z,58.30
2019-04-03T08:27:30.283Z,58.20
2019-04-03T08:29:58.416Z,57.60
2019-04-03T08:32:26.545Z,57.00
2019-04-03T08:34:54.714Z,56.50
2019-04-03T08:37:29.487Z,56.00
2019-04-03T08:39:53.190Z,56.90
2019-04-03T08:42:21.342Z,57.20
2019-04-03T08:44:49.341Z,55.40
2019-04-03T08:47:17.228Z,54.20
2019-04-03T08:49:45.280Z,55.50
2019-04-03T08:52:14.805Z,54.70
2019-04-03T08:54:42.959Z,54.50
2019-04-03T08:57:10.877Z,54.90
2019-04-03T08:59:39.113Z,54.80
2019-04-03T09:02:08.194Z,55.20
2019-04-03T09:04:37.857Z,55.40
2019-04-03T09:07:05.763Z,55.70
2019-04-03T09:09:35.303Z,55.00
2019-04-03T09:12:06.841Z,55.50
2019-04-03T09:14:34.262Z,55.00
2019-04-03T09:17:02.801Z,55.10
2019-04-03T09:19:31.467Z,55.80
2019-04-03T09:21:59.606Z,56.40
2019-04-03T09:24:29.648Z,58.00
2019-04-03T09:26:57.490Z,58.90
2019-04-03T09:29:25.378Z,60.60
2019-04-03T09:31:56.236Z,64.60
2019-04-03T09:34:24.697Z,65.10
2019-04-03T09:36:52.583Z,68.60
2019-04-03T09:39:20.621Z,67.70
2019-04-03T09:41:48.812Z,69.70
2019-04-03T09:44:18.362Z,71.80
2019-04-03T09:46:46.300Z,75.90
2019-04-03T09:49:14.232Z,80.40
2019-04-03T09:51:42.805Z,74.00
2019-04-03T09:54:11.754Z,70.50
2019-04-03T09:56:54.884Z,72.70
2019-04-03T09:59:09.939Z,71.70
2019-04-03T10:01:37.823Z,72.40
2019-04-03T10:04:05.973Z,71.40
2019-04-03T10:06:33.941Z,70.60
2019-04-03T10:09:03.163Z,70.20
2019-04-03T10:11:32.870Z,71.30
2019-04-03T10:14:00.932Z,71.50
2019-04-03T10:16:28.977Z,72.10
2019-04-03T10:18:57.088Z,69.70
2019-04-03T10:21:25.341Z,69.40
2019-04-03T10:23:53.281Z,69.90
2019-04-03T10:26:21.335Z,69.80
2019-04-03T10:28:49.358Z,71.00
2019-04-03T10:31:17.483Z,70.90
2019-04-03T10:33:45.489Z,72.30
2019-04-03T10:36:13.408Z,74.70
2019-04-03T10:38:42.411Z,75.90
2019-04-03T10:41:11.498Z,76.40
2019-04-03T10:43:39.971Z,76.30
2019-04-03T10:46:08.135Z,78.20
2019-04-03T10:48:36.160Z,72.50
2019-04-03T10:51:04.805Z,72.10
2019-04-03T10:53:33.113Z,73.20
2019-04-03T10:56:01.180Z,71.50
2019-04-03T10:58:29.112Z,64.40
2019-04-03T11:00:59.062Z,62.80
2019-04-03T11:03:26.946Z,62.00
2019-04-03T11:05:54.970Z,63.30
2019-04-03T11:08:22.926Z,61.00
2019-04-03T11:10:51.331Z,60.60
2019-04-03T11:13:19.375Z,60.40
2019-04-03T11:15:47.278Z,58.40
2019-04-03T11:18:15.243Z,58.70
2019-04-03T11:20:43.577Z,58.70
2019-04-03T11:23:11.578Z,57.10
2019-04-03T11:25:41.916Z,56.80
2019-04-03T11:28:09.608Z,55.80
2019-04-03T11:30:40.093Z,50.40
2019-04-03T11:33:08.220Z,52.30
2019-04-03T11:35:36.286Z,52.30
2019-04-03T11:38:13.093Z,52.10
2019-04-03T11:40:34.566Z,52.50
2019-04-03T11:43:03.059Z,53.00
2019-04-03T11:45:31.577Z,53.10
2019-04-03T11:47:59.578Z,53.10
2019-04-03T11:50:28.365Z,52.90
2019-04-03T11:52:56.447Z,52.60
2019-04-03T11:55:25.730Z,50.80
2019-04-03T11:57:53.962Z,52.30
2019-04-03T12:00:26.671Z,48.80
2019-04-03T12:02:55.028Z,50.10
2019-04-03T12:05:23.054Z,46.70
2019-04-03T12:07:51.293Z,45.30
2019-04-03T12:10:19.330Z,44.60
2019-04-03T12:12:49.387Z,47.10
2019-04-03T12:15:21.390Z,46.20
2019-04-03T12:17:48.977Z,46.70
2019-04-03T12:20:22.086Z,46.00
2019-04-03T12:22:54.533Z,45.60
2019-04-03T12:25:23.160Z,44.60
2019-04-03T12:27:51.349Z,43.70
2019-04-03T12:30:20.451Z,41.90
2019-04-03T12:32:50.304Z,40.30
2019-04-03T12:35:31.980Z,41.10
2019-04-03T12:38:02.760Z,43.30
2019-04-03T12:40:32.740Z,43.70
2019-04-03T12:43:01.058Z,43.50
2019-04-03T12:45:29.210Z,43.40
2019-04-03T12:47:57.763Z,43.50
2019-04-03T12:50:27.581Z,44.40
2019-04-03T12:52:56.173Z,44.60
2019-04-03T12:55:25.582Z,45.20
2019-04-03T12:57:54.995Z,45.80
2019-04-03T13:00:24.762Z,46.70
2019-04-03T13:02:54.384Z,47.30
2019-04-03T13:05:22.492Z,47.60
2019-04-03T13:07:51.081Z,46.60
2019-04-03T13:10:20.468Z,46.60
2019-04-03T13:12:49.228Z,46.20
2019-04-03T13:15:17.434Z,46.20
2019-04-03T13:17:46.479Z,45.60
2019-04-03T13:20:15.611Z,44.90
2019-04-03T13:22:43.966Z,46.30
2019-04-03T13:25:12.872Z,45.10
2019-04-03T13:27:41.085Z,44.80
2019-04-03T13:30:12.442Z,44.60
2019-04-03T13:32:39.995Z,44.90
2019-04-03T13:35:08.417Z,44.90
2019-04-03T13:37:38.762Z,44.90
2019-04-03T13:40:08.194Z,45.10
2019-04-03T13:42:36.572Z,44.30
2019-04-03T13:45:06.161Z,43.80
2019-04-03T13:47:34.994Z,43.30
2019-04-03T13:50:04.021Z,43.00
2019-04-03T13:52:40.918Z,40.80
2019-04-03T13:55:03.488Z,40.90
2019-04-03T13:57:31.780Z,40.30
2019-04-03T14:00:03.686Z,39.40
2019-04-03T14:02:31.300Z,39.20
2019-04-03T14:04:59.649Z,38.40
2019-04-03T14:07:30.224Z,39.60
2019-04-03T14:09:57.994Z,41.00
2019-04-03T14:12:27.157Z,40.80
2019-04-03T14:14:55.126Z,42.60
2019-04-03T14:17:23.447Z,43.90
2019-04-03T14:19:52.736Z,45.50
2019-04-03T14:22:21.470Z,46.30
2019-04-03T14:24:52.603Z,46.10
2019-04-03T14:27:24.552Z,46.80
2019-04-03T14:29:50.586Z,47.00
2019-04-03T14:32:21.198Z,46.40
2019-04-03T14:34:49.207Z,43.80
2019-04-03T14:37:17.443Z,44.00
2019-04-03T14:39:45.632Z,44.70
2019-04-03T14:42:14.391Z,45.70
2019-04-03T14:44:45.575Z,46.20
2019-04-03T14:47:12.475Z,45.90
2019-04-03T14:49:40.697Z,45.60
2019-04-03T14:52:09.098Z,45.30
2019-04-03T14:54:37.303Z,44.20
2019-04-03T14:57:13.161Z,44.80
2019-04-03T14:59:35.555Z,45.80
2019-04-03T15:02:04.240Z,45.40
2019-04-03T15:04:36.470Z,44.20
2019-04-03T15:07:08.602Z,45.50
2019-04-03T15:09:34.213Z,45.70
2019-04-03T15:12:02.685Z,46.40
2019-04-03T15:14:30.870Z,47.10
2019-04-03T15:16:59.160Z,47.50
2019-04-03T15:19:29.894Z,48.50
2019-04-03T15:22:01.476Z,50.10
2019-04-03T15:24:28.124Z,51.30
2019-04-03T15:26:56.534Z,50.60
2019-04-03T15:29:26.646Z,51.20
2019-04-03T15:31:57.149Z,52.00
2019-04-03T15:34:27.644Z,52.60
2019-04-03T15:36:57.187Z,52.40
2019-04-03T15:39:25.414Z,52.40
2019-04-03T15:41:54.093Z,54.30
2019-04-03T15:44:22.410Z,55.20
2019-04-03T15:46:52.317Z,55.80
2019-04-03T15:49:21.230Z,55.20
2019-04-03T15:51:49.707Z,55.70
2019-04-03T15:54:17.787Z,57.10
2019-04-03T15:56:46.565Z,57.10
2019-04-03T15:59:15.557Z,56.40
2019-04-03T16:01:44.539Z,57.10
2019-04-03T16:04:13.509Z,57.10
2019-04-03T16:06:41.806Z,58.30
2019-04-03T16:09:11.346Z,60.30
2019-04-03T16:11:40.194Z,62.30
2019-04-03T16:14:08.643Z,64.50
2019-04-03T16:16:36.970Z,63.60
2019-04-03T16:19:05.147Z,64.60
2019-04-03T16:21:34.203Z,65.30
2019-04-03T16:24:02.754Z,67.50
2019-04-03T16:26:31.565Z,68.40
2019-04-03T16:28:59.783Z,69.70
2019-04-03T16:31:28.414Z,70.90
2019-04-03T16:33:56.403Z,72.90
2019-04-03T16:36:24.528Z,73.80
2019-04-03T16:38:53.975Z,75.10
2019-04-03T16:41:22.211Z,77.10
2019-04-03T16:43:50.404Z,78.60
2019-04-03T16:46:18.589Z,80.50
2019-04-03T16:48:49.079Z,84.00
2019-04-03T16:51:18.162Z,86.00
2019-04-03T16:53:46.415Z,89.00
2019-04-03T16:56:16.005Z,85.30
2019-04-03T16:58:45.118Z,85.00
2019-04-03T17:01:14.445Z,85.30
2019-04-03T17:03:43.355Z,88.10
2019-04-03T17:06:13.202Z,92.00
2019-04-03T17:08:42.309Z,91.90
2019-04-03T17:11:12.068Z,93.40
2019-04-03T17:13:41.131Z,94.50
2019-04-03T17:16:09.570Z,95.10
2019-04-03T17:18:37.921Z,95.60
2019-04-03T17:21:06.335Z,96.20
2019-04-03T17:23:34.855Z,96.50
2019-04-03T17:26:03.843Z,96.70
2019-04-03T17:28:32.467Z,96.60
2019-04-03T17:31:00.903Z,96.70
2019-04-03T17:33:29.234Z,97.00
2019-04-03T17:35:57.487Z,97.10
2019-04-03T17:38:26.170Z,97.30
2019-04-03T17:41:01.014Z,97.10
2019-04-03T17:43:29.402Z,97.30
2019-04-03T17:45:57.880Z,96.70
2019-04-03T17:48:26.034Z,96.90
2019-04-03T17:50:54.210Z,97.10
2019-04-03T17:53:22.667Z,97.50
2019-04-03T17:55:50.827Z,96.90
2019-04-03T17:58:19.891Z,96.20
2019-04-03T18:00:51.769Z,96.30
2019-04-03T18:03:19.616Z,96.10
2019-04-03T18:05:48.400Z,96.50
2019-04-03T18:08:16.699Z,95.30
2019-04-03T18:10:45.069Z,94.30
2019-04-03T18:13:13.611Z,92.60
2019-04-03T18:15:41.747Z,92.70
2019-04-03T18:18:10.186Z,92.40
2019-04-03T18:20:38.164Z,92.80
2019-04-03T18:23:06.409Z,93.60
2019-04-03T18:25:34.486Z,94.00
2019-04-03T18:28:04.798Z,93.70
2019-04-03T18:30:35.504Z,93.40
2019-04-03T18:33:05.796Z,94.20
2019-04-03T18:35:35.440Z,94.40
2019-04-03T18:38:07.574Z,94.20
2019-04-03T18:40:34.692Z,94.00
2019-04-03T18:43:02.882Z,95.20
2019-04-03T18:45:31.063Z,95.60
2019-04-03T18:48:01.186Z,95.10
2019-04-03T18:50:29.666Z,95.20
2019-04-03T18:53:00.291Z,95.20
2019-04-03T18:55:28.580Z,95.30
2019-04-03T18:57:56.695Z,95.40
2019-04-03T19:00:24.917Z,95.30
2019-04-03T19:02:53.111Z,95.10
2019-04-03T19:05:21.578Z,95.40
2019-04-03T19:07:50.705Z,95.10
2019-04-03T19:10:19.146Z,95.20
2019-04-03T19:12:50.499Z,95.10
2019-04-03T19:15:18.793Z,95.10
2019-04-03T19:17:59.052Z,95.20
2019-04-03T19:20:17.610Z,95.20
2019-04-03T19:22:46.365Z,95.60
2019-04-03T19:25:14.733Z,96.10
2019-04-03T19:27:42.985Z,95.80
2019-04-03T19:30:11.405Z,96.40
2019-04-03T19:32:42.758Z,96.70
2019-04-03T19:35:10.232Z,96.40
2019-04-03T19:37:39.061Z,96.70
2019-04-03T19:40:09.695Z,97.10
2019-04-03T19:42:38.290Z,97.40
2019-04-03T19:45:08.071Z,97.50
2019-04-03T19:47:36.623Z,97.60
2019-04-03T19:50:06.665Z,97.20
2019-04-03T19:52:37.209Z,97.30
2019-04-03T19:55:05.512Z,97.60
2019-04-03T19:57:33.780Z,97.90
2019-04-03T20:00:03.167Z,97.30
2019-04-03T20:02:32.135Z,96.60
2019-04-03T20:05:00.384Z,96.80
2019-04-03T20:07:28.847Z,96.90
2019-04-03T20:09:57.487Z,97.00
2019-04-03T20:12:26.099Z,97.10
2019-04-03T20:14:58.344Z,97.50
2019-04-03T20:17:24.989Z,96.70
2019-04-03T20:19:53.221Z,96.80
2019-04-03T20:22:21.403Z,96.90
2019-04-03T20:24:59.383Z,97.10
2019-04-03T20:27:19.753Z,97.30
2019-04-03T20:29:47.964Z,97.20
2019-04-03T20:32:16.056Z,97.60
2019-04-03T20:34:45.101Z,97.70
2019-04-03T20:37:13.415Z,97.80
2019-04-03T20:39:41.517Z,97.40
2019-04-03T20:42:20.804Z,97.50
2019-04-03T20:44:49.263Z,97.80
2019-04-03T20:47:17.304Z,97.90
2019-04-03T20:49:45.505Z,97.70
2019-04-03T20:52:13.683Z,97.40
2019-04-03T20:54:42.026Z,97.30
2019-04-03T20:57:13.305Z,97.50
2019-04-03T20:59:42.641Z,97.70
2019-04-03T21:02:10.443Z,97.90
2019-04-03T21:04:38.681Z,97.40
2019-04-03T21:07:06.836Z,97.30
2019-04-03T21:09:35.073Z,96.60
2019-04-03T21:12:05.006Z,96.30
2019-04-03T21:14:33.010Z,96.00
2019-04-03T21:17:00.974Z,95.60
2019-04-03T21:19:28.953Z,95.40
2019-04-03T21:21:57.693Z,93.90
2019-04-03T21:24:26.973Z,93.20
2019-04-03T21:26:55.761Z,93.20
2019-04-03T21:29:23.888Z,93.40
2019-04-03T21:31:52.042Z,92.70
2019-04-03T21:34:20.118Z,92.00
2019-04-03T21:36:48.163Z,92.70
2019-04-03T21:39:16.175Z,93.60
2019-04-03T21:41:44.213Z,93.50
2019-04-03T21:44:12.175Z,93.80
2019-04-03T21:46:40.459Z,94.10
2019-04-03T21:49:12.120Z,95.20
2019-04-03T21:51:40.239Z,96.00
2019-04-03T21:54:08.350Z,95.90
2019-04-03T21:56:36.475Z,96.10
2019-04-03T21:59:04.627Z,95.90
2019-04-03T22:01:32.868Z,95.80
2019-04-03T22:04:01.077Z,95.80
2019-04-03T22:06:29.243Z,96.40
2019-04-03T22:08:59.651Z,95.20
2019-04-03T22:11:27.326Z,95.70
2019-04-03T22:13:55.311Z,95.50
2019-04-03T22:16:24.208Z,95.20
2019-04-03T22:18:52.947Z,95.20
2019-04-03T22:21:22.273Z,95.30
2019-04-03T22:23:50.261Z,95.80
2019-04-03T22:26:18.155Z,96.00
2019-04-03T22:28:47.152Z,96.20
2019-04-03T22:31:15.159Z,96.50
2019-04-03T22:33:43.139Z,95.20
2019-04-03T22:36:11.097Z,95.80
2019-04-03T22:38:39.090Z,95.20
2019-04-03T22:41:07.042Z,95.40
2019-04-03T22:43:35.013Z,95.40
2019-04-03T22:46:03.103Z,95.60
2019-04-03T22:48:31.040Z,95.50
2019-04-03T22:50:58.988Z,95.20
2019-04-03T22:53:26.925Z,95.10
2019-04-03T22:55:54.960Z,94.90
2019-04-03T22:58:23.037Z,95.20
2019-04-03T23:00:51.092Z,95.10
2019-04-03T23:03:19.073Z,94.70
2019-04-03T23:05:48.010Z,95.00
2019-04-03T23:08:17.596Z,94.40
2019-04-03T23:10:45.766Z,94.50
2019-04-03T23:13:13.747Z,94.60
2019-04-03T23:15:41.771Z,94.90
2019-04-03T23:18:09.776Z,95.00
2019-04-03T23:20:37.695Z,95.00
2019-04-03T23:23:08.896Z,95.20
2019-04-03T23:25:36.846Z,95.40
2019-04-03T23:28:05.224Z,95.40
2019-04-03T23:30:33.157Z,95.50
2019-04-03T23:33:02.049Z,95.80
2019-04-03T23:35:30.968Z,96.10
2019-04-03T23:37:58.937Z,95.90
2019-04-03T23:40:26.890Z,96.10
2019-04-03T23:42:54.964Z,96.10
2019-04-03T23:45:25.227Z,96.10
2019-04-03T23:47:53.215Z,96.10
2019-04-03T23:50:21.919Z,96.10
2019-04-03T23:52:50.444Z,96.10
2019-04-03T23:55:18.369Z,96.20
2019-04-03T23:57:46.247Z,96.50
